sensor_id;sensor_type;location;lat;lon;timestamp;P1;P2;P0
71858;PMS5003;59713;50.866;4.324;2023-08-17T00:00:29;4;3;
71858;PMS5003;59713;50.866;4.324;2023-08-17T00:01:29;8;5;
71858;PMS5003;59713;50.866;4.324;2023-08-17T00:02:29;8;5;
71858;PMS5003;59713;50.866;4.324;2023-08-17T00:02:29;8;5;
71858;PMS5003;59713;50.866;4.324;2023-08-17T00:03:29;8;5;
71858;PMS5003;59713;50.866;4.324;2023-08-17T00:04:29;5;5;
71858;PMS5003;59713;50.866;4.324;2023-08-17T00:05:29;5;5;
71858;PMS5003;59713;50.866;4.324;2023-08-17T00:06:29;5;5;
71858;PMS5003;59713;50.866;4.324;2023-08-17T00:07:29;7;7;
71858;PMS5003;59713;50.866;4.324;2023-08-17T00:08:29;7;7;
71858;PMS5003;59713;50.866;4.324;2023-08-17T00:09:29;7;7;
71858;PMS5003;59713;50.866;4.324;2023-08-17T00:10:29;4;4;
71858;PMS5003;59713;50.866;4.324;2023-08-17T00:11:29;4;4;
71858;PMS5003;59713;50.866;4.324;2023-08-17T00:11:29;4;4;
71858;PMS5003;59713;50.866;4.324;2023-08-17T00:12:29;4;4;
71858;PMS5003;59713;50.866;4.324;2023-08-17T00:13:29;4;4;
71858;PMS5003;59713;50.866;4.324;2023-08-17T00:14:29;4;4;
71858;PMS5003;59713;50.866;4.324;2023-08-17T00:15:29;4;4;
71858;PMS5003;59713;50.866;4.324;2023-08-17T00:16:29;5;5;
71858;PMS5003;59713;50.866;4.324;2023-08-17T00:17:29;5;5;
71858;PMS5003;59713;50.866;4.324;2023-08-17T00:18:29;5;5;
71858;PMS5003;59713;50.866;4.324;2023-08-17T00:19:29;5;5;
71858;PMS5003;59713;50.866;4.324;2023-08-17T00:20:29;5;5;
71858;PMS5003;59713;50.866;4.324;2023-08-17T00:20:29;5;5;
71858;PMS5003;59713;50.866;4.324;2023-08-17T00:21:29;5;5;
71858;PMS5003;59713;50.866;4.324;2023-08-17T00:22:29;7;7;
71858;PMS5003;59713;50.866;4.324;2023-08-17T00:23:29;7;7;
71858;PMS5003;59713;50.866;4.324;2023-08-17T00:24:29;7;7;
71858;PMS5003;59713;50.866;4.324;2023-08-17T00:25:29;5;4;
71858;PMS5003;59713;50.866;4.324;2023-08-17T00:26:29;5;4;
71858;PMS5003;59713;50.866;4.324;2023-08-17T00:27:29;5;4;
71858;PMS5003;59713;50.866;4.324;2023-08-17T00:28:29;8;5;
71858;PMS5003;59713;50.866;4.324;2023-08-17T00:29:29;8;5;
71858;PMS5003;59713;50.866;4.324;2023-08-17T00:29:29;8;5;
71858;PMS5003;59713;50.866;4.324;2023-08-17T00:30:29;8;5;
71858;PMS5003;59713;50.866;4.324;2023-08-17T00:31:29;4;4;
71858;PMS5003;59713;50.866;4.324;2023-08-17T00:32:29;4;4;
71858;PMS5003;59713;50.866;4.324;2023-08-17T00:33:29;4;4;
71858;PMS5003;59713;50.866;4.324;2023-08-17T00:34:29;9;7;
71858;PMS5003;59713;50.866;4.324;2023-08-17T00:35:29;9;7;
71858;PMS5003;59713;50.866;4.324;2023-08-17T00:36:29;9;7;
71858;PMS5003;59713;50.866;4.324;2023-08-17T00:37:29;6;5;
71858;PMS5003;59713;50.866;4.324;2023-08-17T00:38:29;6;5;
71858;PMS5003;59713;50.866;4.324;2023-08-17T00:38:29;6;5;
71858;PMS5003;59713;50.866;4.324;2023-08-17T00:39:29;6;5;
71858;PMS5003;59713;50.866;4.324;2023-08-17T00:40:29;2;2;
71858;PMS5003;59713;50.866;4.324;2023-08-17T00:41:33;2;2;
71858;PMS5003;59713;50.866;4.324;2023-08-17T00:42:29;2;2;
71858;PMS5003;59713;50.866;4.324;2023-08-17T00:43:29;6;6;
71858;PMS5003;59713;50.866;4.324;2023-08-17T00:44:29;6;6;
71858;PMS5003;59713;50.866;4.324;2023-08-17T00:45:29;6;6;
71858;PMS5003;59713;50.866;4.324;2023-08-17T00:46:29;5;5;
71858;PMS5003;59713;50.866;4.324;2023-08-17T00:47:29;5;5;
71858;PMS5003;59713;50.866;4.324;2023-08-17T00:47:29;5;5;
71858;PMS5003;59713;50.866;4.324;2023-08-17T00:48:29;5;5;
71858;PMS5003;59713;50.866;4.324;2023-08-17T00:49:29;6;5;
71858;PMS5003;59713;50.866;4.324;2023-08-17T00:50:29;6;5;
71858;PMS5003;59713;50.866;4.324;2023-08-17T00:51:29;6;5;
71858;PMS5003;59713;50.866;4.324;2023-08-17T00:52:29;7;5;
71858;PMS5003;59713;50.866;4.324;2023-08-17T00:53:29;7;5;
71858;PMS5003;59713;50.866;4.324;2023-08-17T00:54:29;7;5;
71858;PMS5003;59713;50.866;4.324;2023-08-17T00:55:29;5;5;
71858;PMS5003;59713;50.866;4.324;2023-08-17T00:56:29;5;5;
71858;PMS5003;59713;50.866;4.324;2023-08-17T00:56:29;5;5;
71858;PMS5003;59713;50.866;4.324;2023-08-17T00:57:29;5;5;
71858;PMS5003;59713;50.866;4.324;2023-08-17T00:58:29;7;6;
71858;PMS5003;59713;50.866;4.324;2023-08-17T00:59:29;7;6;
71858;PMS5003;59713;50.866;4.324;2023-08-17T01:00:29;7;6;
71858;PMS5003;59713;50.866;4.324;2023-08-17T01:01:29;10;8;
71858;PMS5003;59713;50.866;4.324;2023-08-17T01:02:29;10;8;
71858;PMS5003;59713;50.866;4.324;2023-08-17T01:03:29;10;8;
71858;PMS5003;59713;50.866;4.324;2023-08-17T01:04:29;8;8;
71858;PMS5003;59713;50.866;4.324;2023-08-17T01:05:29;8;8;
71858;PMS5003;59713;50.866;4.324;2023-08-17T01:05:29;8;8;
71858;PMS5003;59713;50.866;4.324;2023-08-17T01:06:29;8;8;
71858;PMS5003;59713;50.866;4.324;2023-08-17T01:07:29;7;6;
71858;PMS5003;59713;50.866;4.324;2023-08-17T01:08:29;7;6;
71858;PMS5003;59713;50.866;4.324;2023-08-17T01:09:29;7;6;
71858;PMS5003;59713;50.866;4.324;2023-08-17T01:10:30;6;6;
71858;PMS5003;59713;50.866;4.324;2023-08-17T01:11:29;6;6;
71858;PMS5003;59713;50.866;4.324;2023-08-17T01:12:29;6;6;
71858;PMS5003;59713;50.866;4.324;2023-08-17T01:13:31;9;7;
71858;PMS5003;59713;50.866;4.324;2023-08-17T01:14:30;9;7;
71858;PMS5003;59713;50.866;4.324;2023-08-17T01:15:31;9;7;
71858;PMS5003;59713;50.866;4.324;2023-08-17T01:15:31;9;7;
71858;PMS5003;59713;50.866;4.324;2023-08-17T01:16:31;6;6;
71858;PMS5003;59713;50.866;4.324;2023-08-17T01:17:29;6;6;
71858;PMS5003;59713;50.866;4.324;2023-08-17T01:18:29;6;6;
71858;PMS5003;59713;50.866;4.324;2023-08-17T01:19:29;3;2;
71858;PMS5003;59713;50.866;4.324;2023-08-17T01:20:29;3;2;
71858;PMS5003;59713;50.866;4.324;2023-08-17T01:21:36;3;2;
71858;PMS5003;59713;50.866;4.324;2023-08-17T01:22:29;5;5;
71858;PMS5003;59713;50.866;4.324;2023-08-17T01:23:29;5;5;
71858;PMS5003;59713;50.866;4.324;2023-08-17T01:24:29;5;5;
71858;PMS5003;59713;50.866;4.324;2023-08-17T01:25:29;7;7;
71858;PMS5003;59713;50.866;4.324;2023-08-17T01:25:29;7;7;
71858;PMS5003;59713;50.866;4.324;2023-08-17T01:26:29;7;7;
71858;PMS5003;59713;50.866;4.324;2023-08-17T01:27:33;7;7;
71858;PMS5003;59713;50.866;4.324;2023-08-17T01:28:29;6;6;
71858;PMS5003;59713;50.866;4.324;2023-08-17T01:29:29;6;6;
71858;PMS5003;59713;50.866;4.324;2023-08-17T01:30:29;6;6;
71858;PMS5003;59713;50.866;4.324;2023-08-17T01:31:30;10;8;
71858;PMS5003;59713;50.866;4.324;2023-08-17T01:32:32;10;8;
71858;PMS5003;59713;50.866;4.324;2023-08-17T01:33:31;10;8;
71858;PMS5003;59713;50.866;4.324;2023-08-17T01:34:29;7;7;
71858;PMS5003;59713;50.866;4.324;2023-08-17T01:34:29;7;7;
71858;PMS5003;59713;50.866;4.324;2023-08-17T01:35:30;7;7;
71858;PMS5003;59713;50.866;4.324;2023-08-17T01:36:30;7;7;
71858;PMS5003;59713;50.866;4.324;2023-08-17T01:37:29;7;7;
71858;PMS5003;59713;50.866;4.324;2023-08-17T01:38:29;7;7;
71858;PMS5003;59713;50.866;4.324;2023-08-17T01:39:31;7;7;
71858;PMS5003;59713;50.866;4.324;2023-08-17T01:40:29;5;5;
71858;PMS5003;59713;50.866;4.324;2023-08-17T01:41:29;5;5;
71858;PMS5003;59713;50.866;4.324;2023-08-17T01:42:29;5;5;
71858;PMS5003;59713;50.866;4.324;2023-08-17T01:43:29;9;7;
71858;PMS5003;59713;50.866;4.324;2023-08-17T01:43:29;9;7;
71858;PMS5003;59713;50.866;4.324;2023-08-17T01:44:29;9;7;
71858;PMS5003;59713;50.866;4.324;2023-08-17T01:45:29;9;7;
71858;PMS5003;59713;50.866;4.324;2023-08-17T01:46:30;6;6;
71858;PMS5003;59713;50.866;4.324;2023-08-17T01:47:29;6;6;
71858;PMS5003;59713;50.866;4.324;2023-08-17T01:48:29;6;6;
71858;PMS5003;59713;50.866;4.324;2023-08-17T01:49:29;8;6;
71858;PMS5003;59713;50.866;4.324;2023-08-17T01:50:29;8;6;
71858;PMS5003;59713;50.866;4.324;2023-08-17T01:51:29;8;6;
71858;PMS5003;59713;50.866;4.324;2023-08-17T01:52:29;6;6;
71858;PMS5003;59713;50.866;4.324;2023-08-17T01:53:29;6;6;
71858;PMS5003;59713;50.866;4.324;2023-08-17T01:53:29;6;6;
71858;PMS5003;59713;50.866;4.324;2023-08-17T01:54:29;6;6;
71858;PMS5003;59713;50.866;4.324;2023-08-17T01:55:29;8;5;
71858;PMS5003;59713;50.866;4.324;2023-08-17T01:56:29;8;5;
71858;PMS5003;59713;50.866;4.324;2023-08-17T01:57:29;8;5;
71858;PMS5003;59713;50.866;4.324;2023-08-17T01:58:29;8;8;
71858;PMS5003;59713;50.866;4.324;2023-08-17T01:59:29;8;8;
71858;PMS5003;59713;50.866;4.324;2023-08-17T02:00:29;8;8;
71858;PMS5003;59713;50.866;4.324;2023-08-17T02:01:29;9;7;
71858;PMS5003;59713;50.866;4.324;2023-08-17T02:02:29;9;7;
71858;PMS5003;59713;50.866;4.324;2023-08-17T02:02:29;9;7;
71858;PMS5003;59713;50.866;4.324;2023-08-17T02:03:29;9;7;
71858;PMS5003;59713;50.866;4.324;2023-08-17T02:04:29;5;5;
71858;PMS5003;59713;50.866;4.324;2023-08-17T02:05:29;5;5;
71858;PMS5003;59713;50.866;4.324;2023-08-17T02:06:29;5;5;
71858;PMS5003;59713;50.866;4.324;2023-08-17T02:07:29;7;7;
71858;PMS5003;59713;50.866;4.324;2023-08-17T02:08:29;7;7;
71858;PMS5003;59713;50.866;4.324;2023-08-17T02:09:29;7;7;
71858;PMS5003;59713;50.866;4.324;2023-08-17T02:10:29;7;7;
71858;PMS5003;59713;50.866;4.324;2023-08-17T02:11:29;7;7;
71858;PMS5003;59713;50.866;4.324;2023-08-17T02:11:29;7;7;
71858;PMS5003;59713;50.866;4.324;2023-08-17T02:12:29;7;7;
71858;PMS5003;59713;50.866;4.324;2023-08-17T02:13:29;9;9;
71858;PMS5003;59713;50.866;4.324;2023-08-17T02:14:29;9;9;
71858;PMS5003;59713;50.866;4.324;2023-08-17T02:15:29;9;9;
71858;PMS5003;59713;50.866;4.324;2023-08-17T02:16:29;7;7;
71858;PMS5003;59713;50.866;4.324;2023-08-17T02:17:29;7;7;
71858;PMS5003;59713;50.866;4.324;2023-08-17T02:18:29;7;7;
71858;PMS5003;59713;50.866;4.324;2023-08-17T02:19:29;6;6;
71858;PMS5003;59713;50.866;4.324;2023-08-17T02:20:29;6;6;
71858;PMS5003;59713;50.866;4.324;2023-08-17T02:20:29;6;6;
71858;PMS5003;59713;50.866;4.324;2023-08-17T02:21:29;6;6;
71858;PMS5003;59713;50.866;4.324;2023-08-17T02:22:29;5;5;
71858;PMS5003;59713;50.866;4.324;2023-08-17T02:23:29;5;5;
71858;PMS5003;59713;50.866;4.324;2023-08-17T02:24:29;5;5;
71858;PMS5003;59713;50.866;4.324;2023-08-17T02:25:29;8;6;
71858;PMS5003;59713;50.866;4.324;2023-08-17T02:26:29;8;6;
71858;PMS5003;59713;50.866;4.324;2023-08-17T02:27:29;8;6;
71858;PMS5003;59713;50.866;4.324;2023-08-17T02:28:29;5;5;
71858;PMS5003;59713;50.866;4.324;2023-08-17T02:29:29;5;5;
71858;PMS5003;59713;50.866;4.324;2023-08-17T02:29:29;5;5;
71858;PMS5003;59713;50.866;4.324;2023-08-17T02:30:29;5;5;
71858;PMS5003;59713;50.866;4.324;2023-08-17T02:31:29;14;9;
71858;PMS5003;59713;50.866;4.324;2023-08-17T02:32:29;14;9;
71858;PMS5003;59713;50.866;4.324;2023-08-17T02:33:29;14;9;
71858;PMS5003;59713;50.866;4.324;2023-08-17T02:34:29;6;6;
71858;PMS5003;59713;50.866;4.324;2023-08-17T02:35:29;6;6;
71858;PMS5003;59713;50.866;4.324;2023-08-17T02:36:29;6;6;
71858;PMS5003;59713;50.866;4.324;2023-08-17T02:37:29;6;6;
71858;PMS5003;59713;50.866;4.324;2023-08-17T02:38:29;6;6;
71858;PMS5003;59713;50.866;4.324;2023-08-17T02:38:29;6;6;
71858;PMS5003;59713;50.866;4.324;2023-08-17T02:39:29;6;6;
71858;PMS5003;59713;50.866;4.324;2023-08-17T02:40:29;7;6;
71858;PMS5003;59713;50.866;4.324;2023-08-17T02:41:29;7;6;
71858;PMS5003;59713;50.866;4.324;2023-08-17T02:42:29;7;6;
71858;PMS5003;59713;50.866;4.324;2023-08-17T02:43:29;6;6;
71858;PMS5003;59713;50.866;4.324;2023-08-17T02:44:29;6;6;
71858;PMS5003;59713;50.866;4.324;2023-08-17T02:45:29;6;6;
71858;PMS5003;59713;50.866;4.324;2023-08-17T02:46:29;2;2;
71858;PMS5003;59713;50.866;4.324;2023-08-17T02:47:29;2;2;
71858;PMS5003;59713;50.866;4.324;2023-08-17T02:47:29;2;2;
71858;PMS5003;59713;50.866;4.324;2023-08-17T02:48:29;2;2;
71858;PMS5003;59713;50.866;4.324;2023-08-17T02:49:29;8;7;
71858;PMS5003;59713;50.866;4.324;2023-08-17T02:50:29;8;7;
71858;PMS5003;59713;50.866;4.324;2023-08-17T02:51:29;8;7;
71858;PMS5003;59713;50.866;4.324;2023-08-17T02:52:29;8;6;
71858;PMS5003;59713;50.866;4.324;2023-08-17T02:53:29;8;6;
71858;PMS5003;59713;50.866;4.324;2023-08-17T02:54:29;8;6;
71858;PMS5003;59713;50.866;4.324;2023-08-17T02:55:29;6;5;
71858;PMS5003;59713;50.866;4.324;2023-08-17T02:56:29;6;5;
71858;PMS5003;59713;50.866;4.324;2023-08-17T02:56:29;6;5;
71858;PMS5003;59713;50.866;4.324;2023-08-17T02:57:29;6;5;
71858;PMS5003;59713;50.866;4.324;2023-08-17T02:58:29;10;6;
71858;PMS5003;59713;50.866;4.324;2023-08-17T02:59:29;10;6;
71858;PMS5003;59713;50.866;4.324;2023-08-17T03:00:29;10;6;
71858;PMS5003;59713;50.866;4.324;2023-08-17T03:01:29;9;7;
71858;PMS5003;59713;50.866;4.324;2023-08-17T03:02:29;9;7;
71858;PMS5003;59713;50.866;4.324;2023-08-17T03:03:29;9;7;
71858;PMS5003;59713;50.866;4.324;2023-08-17T03:04:29;7;4;
71858;PMS5003;59713;50.866;4.324;2023-08-17T03:05:29;7;4;
71858;PMS5003;59713;50.866;4.324;2023-08-17T03:05:29;7;4;
71858;PMS5003;59713;50.866;4.324;2023-08-17T03:06:29;7;4;
71858;PMS5003;59713;50.866;4.324;2023-08-17T03:07:29;6;6;
71858;PMS5003;59713;50.866;4.324;2023-08-17T03:08:29;6;6;
71858;PMS5003;59713;50.866;4.324;2023-08-17T03:09:29;6;6;
71858;PMS5003;59713;50.866;4.324;2023-08-17T03:10:29;6;6;
71858;PMS5003;59713;50.866;4.324;2023-08-17T03:11:29;6;6;
71858;PMS5003;59713;50.866;4.324;2023-08-17T03:12:29;6;6;
71858;PMS5003;59713;50.866;4.324;2023-08-17T03:13:29;7;7;
71858;PMS5003;59713;50.866;4.324;2023-08-17T03:14:29;7;7;
71858;PMS5003;59713;50.866;4.324;2023-08-17T03:14:29;7;7;
71858;PMS5003;59713;50.866;4.324;2023-08-17T03:15:29;7;7;
71858;PMS5003;59713;50.866;4.324;2023-08-17T03:16:29;2;2;
71858;PMS5003;59713;50.866;4.324;2023-08-17T03:17:29;2;2;
71858;PMS5003;59713;50.866;4.324;2023-08-17T03:18:29;2;2;
71858;PMS5003;59713;50.866;4.324;2023-08-17T03:19:29;7;7;
71858;PMS5003;59713;50.866;4.324;2023-08-17T03:20:29;7;7;
71858;PMS5003;59713;50.866;4.324;2023-08-17T03:21:29;7;7;
71858;PMS5003;59713;50.866;4.324;2023-08-17T03:22:29;5;5;
71858;PMS5003;59713;50.866;4.324;2023-08-17T03:23:29;5;5;
71858;PMS5003;59713;50.866;4.324;2023-08-17T03:23:29;5;5;
71858;PMS5003;59713;50.866;4.324;2023-08-17T03:24:29;5;5;
71858;PMS5003;59713;50.866;4.324;2023-08-17T03:25:29;7;6;
71858;PMS5003;59713;50.866;4.324;2023-08-17T03:26:29;7;6;
71858;PMS5003;59713;50.866;4.324;2023-08-17T03:27:29;7;6;
71858;PMS5003;59713;50.866;4.324;2023-08-17T03:28:29;8;8;
71858;PMS5003;59713;50.866;4.324;2023-08-17T03:29:29;8;8;
71858;PMS5003;59713;50.866;4.324;2023-08-17T03:30:29;8;8;
71858;PMS5003;59713;50.866;4.324;2023-08-17T03:31:29;5;5;
71858;PMS5003;59713;50.866;4.324;2023-08-17T03:32:29;5;5;
71858;PMS5003;59713;50.866;4.324;2023-08-17T03:32:29;5;5;
71858;PMS5003;59713;50.866;4.324;2023-08-17T03:33:29;5;5;
71858;PMS5003;59713;50.866;4.324;2023-08-17T03:34:29;6;6;
71858;PMS5003;59713;50.866;4.324;2023-08-17T03:35:29;6;6;
71858;PMS5003;59713;50.866;4.324;2023-08-17T03:36:29;6;6;
71858;PMS5003;59713;50.866;4.324;2023-08-17T03:37:29;6;5;
71858;PMS5003;59713;50.866;4.324;2023-08-17T03:38:29;6;5;
71858;PMS5003;59713;50.866;4.324;2023-08-17T03:39:29;6;5;
71858;PMS5003;59713;50.866;4.324;2023-08-17T03:40:29;6;5;
71858;PMS5003;59713;50.866;4.324;2023-08-17T03:41:29;6;5;
71858;PMS5003;59713;50.866;4.324;2023-08-17T03:41:29;6;5;
71858;PMS5003;59713;50.866;4.324;2023-08-17T03:42:29;6;5;
71858;PMS5003;59713;50.866;4.324;2023-08-17T03:43:30;6;6;
71858;PMS5003;59713;50.866;4.324;2023-08-17T03:44:29;6;6;
71858;PMS5003;59713;50.866;4.324;2023-08-17T03:45:29;6;6;
71858;PMS5003;59713;50.866;4.324;2023-08-17T03:46:29;6;5;
71858;PMS5003;59713;50.866;4.324;2023-08-17T03:47:29;6;5;
71858;PMS5003;59713;50.866;4.324;2023-08-17T03:48:29;6;5;
71858;PMS5003;59713;50.866;4.324;2023-08-17T03:49:29;6;6;
71858;PMS5003;59713;50.866;4.324;2023-08-17T03:50:29;6;6;
71858;PMS5003;59713;50.866;4.324;2023-08-17T03:50:29;6;6;
71858;PMS5003;59713;50.866;4.324;2023-08-17T03:51:29;6;6;
71858;PMS5003;59713;50.866;4.324;2023-08-17T03:52:29;8;7;
71858;PMS5003;59713;50.866;4.324;2023-08-17T03:53:29;8;7;
71858;PMS5003;59713;50.866;4.324;2023-08-17T03:54:29;8;7;
71858;PMS5003;59713;50.866;4.324;2023-08-17T03:55:29;6;6;
71858;PMS5003;59713;50.866;4.324;2023-08-17T03:56:29;6;6;
71858;PMS5003;59713;50.866;4.324;2023-08-17T03:57:29;6;6;
71858;PMS5003;59713;50.866;4.324;2023-08-17T03:58:29;9;7;
71858;PMS5003;59713;50.866;4.324;2023-08-17T03:59:29;9;7;
71858;PMS5003;59713;50.866;4.324;2023-08-17T03:59:29;9;7;
71858;PMS5003;59713;50.866;4.324;2023-08-17T04:00:29;9;7;
71858;PMS5003;59713;50.866;4.324;2023-08-17T04:01:29;9;6;
71858;PMS5003;59713;50.866;4.324;2023-08-17T04:02:29;9;6;
71858;PMS5003;59713;50.866;4.324;2023-08-17T04:03:29;9;6;
71858;PMS5003;59713;50.866;4.324;2023-08-17T04:04:29;6;6;
71858;PMS5003;59713;50.866;4.324;2023-08-17T04:05:29;6;6;
71858;PMS5003;59713;50.866;4.324;2023-08-17T04:06:30;6;6;
71858;PMS5003;59713;50.866;4.324;2023-08-17T04:07:29;5;5;
71858;PMS5003;59713;50.866;4.324;2023-08-17T04:08:29;5;5;
71858;PMS5003;59713;50.866;4.324;2023-08-17T04:08:29;5;5;
71858;PMS5003;59713;50.866;4.324;2023-08-17T04:09:29;5;5;
71858;PMS5003;59713;50.866;4.324;2023-08-17T04:10:29;4;4;
71858;PMS5003;59713;50.866;4.324;2023-08-17T04:11:29;4;4;
71858;PMS5003;59713;50.866;4.324;2023-08-17T04:12:29;4;4;
71858;PMS5003;59713;50.866;4.324;2023-08-17T04:13:29;8;7;
71858;PMS5003;59713;50.866;4.324;2023-08-17T04:14:29;8;7;
71858;PMS5003;59713;50.866;4.324;2023-08-17T04:15:29;8;7;
71858;PMS5003;59713;50.866;4.324;2023-08-17T04:16:29;6;6;
71858;PMS5003;59713;50.866;4.324;2023-08-17T04:17:29;6;6;
71858;PMS5003;59713;50.866;4.324;2023-08-17T04:17:29;6;6;
71858;PMS5003;59713;50.866;4.324;2023-08-17T04:18:29;6;6;
71858;PMS5003;59713;50.866;4.324;2023-08-17T04:19:29;6;5;
71858;PMS5003;59713;50.866;4.324;2023-08-17T04:20:29;6;5;
71858;PMS5003;59713;50.866;4.324;2023-08-17T04:21:29;6;5;
71858;PMS5003;59713;50.866;4.324;2023-08-17T04:22:29;8;8;
71858;PMS5003;59713;50.866;4.324;2023-08-17T04:23:29;8;8;
71858;PMS5003;59713;50.866;4.324;2023-08-17T04:24:29;8;8;
71858;PMS5003;59713;50.866;4.324;2023-08-17T04:25:29;6;6;
71858;PMS5003;59713;50.866;4.324;2023-08-17T04:26:29;6;6;
71858;PMS5003;59713;50.866;4.324;2023-08-17T04:26:29;6;6;
71858;PMS5003;59713;50.866;4.324;2023-08-17T04:27:29;6;6;
71858;PMS5003;59713;50.866;4.324;2023-08-17T04:28:29;5;5;
71858;PMS5003;59713;50.866;4.324;2023-08-17T04:29:29;5;5;
71858;PMS5003;59713;50.866;4.324;2023-08-17T04:30:29;5;5;
71858;PMS5003;59713;50.866;4.324;2023-08-17T04:31:29;4;4;
71858;PMS5003;59713;50.866;4.324;2023-08-17T04:32:29;4;4;
71858;PMS5003;59713;50.866;4.324;2023-08-17T04:33:29;4;4;
71858;PMS5003;59713;50.866;4.324;2023-08-17T04:34:29;8;5;
71858;PMS5003;59713;50.866;4.324;2023-08-17T04:35:29;8;5;
71858;PMS5003;59713;50.866;4.324;2023-08-17T04:35:29;8;5;
71858;PMS5003;59713;50.866;4.324;2023-08-17T04:36:29;8;5;
71858;PMS5003;59713;50.866;4.324;2023-08-17T04:37:29;5;5;
71858;PMS5003;59713;50.866;4.324;2023-08-17T04:38:29;5;5;
71858;PMS5003;59713;50.866;4.324;2023-08-17T04:39:29;5;5;
71858;PMS5003;59713;50.866;4.324;2023-08-17T04:40:29;6;6;
71858;PMS5003;59713;50.866;4.324;2023-08-17T04:41:29;6;6;
71858;PMS5003;59713;50.866;4.324;2023-08-17T04:42:29;6;6;
71858;PMS5003;59713;50.866;4.324;2023-08-17T04:43:29;4;3;
71858;PMS5003;59713;50.866;4.324;2023-08-17T04:44:29;4;3;
71858;PMS5003;59713;50.866;4.324;2023-08-17T04:44:29;4;3;
71858;PMS5003;59713;50.866;4.324;2023-08-17T04:45:29;4;3;
71858;PMS5003;59713;50.866;4.324;2023-08-17T04:46:29;7;6;
71858;PMS5003;59713;50.866;4.324;2023-08-17T04:47:29;7;6;
71858;PMS5003;59713;50.866;4.324;2023-08-17T04:48:29;7;6;
71858;PMS5003;59713;50.866;4.324;2023-08-17T04:49:29;8;8;
71858;PMS5003;59713;50.866;4.324;2023-08-17T04:50:29;8;8;
71858;PMS5003;59713;50.866;4.324;2023-08-17T04:51:29;8;8;
71858;PMS5003;59713;50.866;4.324;2023-08-17T04:52:29;7;5;
71858;PMS5003;59713;50.866;4.324;2023-08-17T04:53:29;7;5;
71858;PMS5003;59713;50.866;4.324;2023-08-17T04:53:29;7;5;
71858;PMS5003;59713;50.866;4.324;2023-08-17T04:54:29;7;5;
71858;PMS5003;59713;50.866;4.324;2023-08-17T04:55:29;7;7;
71858;PMS5003;59713;50.866;4.324;2023-08-17T04:56:29;7;7;
71858;PMS5003;59713;50.866;4.324;2023-08-17T04:57:29;7;7;
71858;PMS5003;59713;50.866;4.324;2023-08-17T04:58:29;8;7;
71858;PMS5003;59713;50.866;4.324;2023-08-17T04:59:29;8;7;
71858;PMS5003;59713;50.866;4.324;2023-08-17T05:00:29;8;7;
71858;PMS5003;59713;50.866;4.324;2023-08-17T05:01:29;5;5;
71858;PMS5003;59713;50.866;4.324;2023-08-17T05:02:29;5;5;
71858;PMS5003;59713;50.866;4.324;2023-08-17T05:02:29;5;5;
71858;PMS5003;59713;50.866;4.324;2023-08-17T05:03:29;5;5;
71858;PMS5003;59713;50.866;4.324;2023-08-17T05:04:30;8;8;
71858;PMS5003;59713;50.866;4.324;2023-08-17T05:05:29;8;8;
71858;PMS5003;59713;50.866;4.324;2023-08-17T05:06:29;8;8;
71858;PMS5003;59713;50.866;4.324;2023-08-17T05:07:29;7;7;
71858;PMS5003;59713;50.866;4.324;2023-08-17T05:08:29;7;7;
71858;PMS5003;59713;50.866;4.324;2023-08-17T05:09:29;7;7;
71858;PMS5003;59713;50.866;4.324;2023-08-17T05:10:29;7;6;
71858;PMS5003;59713;50.866;4.324;2023-08-17T05:11:29;7;6;
71858;PMS5003;59713;50.866;4.324;2023-08-17T05:11:29;7;6;
71858;PMS5003;59713;50.866;4.324;2023-08-17T05:12:29;7;6;
71858;PMS5003;59713;50.866;4.324;2023-08-17T05:13:29;5;4;
71858;PMS5003;59713;50.866;4.324;2023-08-17T05:14:29;5;4;
71858;PMS5003;59713;50.866;4.324;2023-08-17T05:15:29;5;4;
71858;PMS5003;59713;50.866;4.324;2023-08-17T05:16:29;8;5;
71858;PMS5003;59713;50.866;4.324;2023-08-17T05:17:29;8;5;
71858;PMS5003;59713;50.866;4.324;2023-08-17T05:18:29;8;5;
71858;PMS5003;59713;50.866;4.324;2023-08-17T05:19:29;7;7;
71858;PMS5003;59713;50.866;4.324;2023-08-17T05:20:29;7;7;
71858;PMS5003;59713;50.866;4.324;2023-08-17T05:20:29;7;7;
71858;PMS5003;59713;50.866;4.324;2023-08-17T05:21:29;7;7;
71858;PMS5003;59713;50.866;4.324;2023-08-17T05:22:29;7;7;
71858;PMS5003;59713;50.866;4.324;2023-08-17T05:23:29;7;7;
71858;PMS5003;59713;50.866;4.324;2023-08-17T05:24:29;7;7;
71858;PMS5003;59713;50.866;4.324;2023-08-17T05:25:29;5;5;
71858;PMS5003;59713;50.866;4.324;2023-08-17T05:26:29;5;5;
71858;PMS5003;59713;50.866;4.324;2023-08-17T05:27:29;5;5;
71858;PMS5003;59713;50.866;4.324;2023-08-17T05:28:30;7;7;
71858;PMS5003;59713;50.866;4.324;2023-08-17T05:29:29;7;7;
71858;PMS5003;59713;50.866;4.324;2023-08-17T05:29:29;7;7;
71858;PMS5003;59713;50.866;4.324;2023-08-17T05:30:29;7;7;
71858;PMS5003;59713;50.866;4.324;2023-08-17T05:31:29;8;5;
71858;PMS5003;59713;50.866;4.324;2023-08-17T05:32:29;8;5;
71858;PMS5003;59713;50.866;4.324;2023-08-17T05:33:29;8;5;
71858;PMS5003;59713;50.866;4.324;2023-08-17T05:34:29;6;6;
71858;PMS5003;59713;50.866;4.324;2023-08-17T05:35:29;6;6;
71858;PMS5003;59713;50.866;4.324;2023-08-17T05:36:29;6;6;
71858;PMS5003;59713;50.866;4.324;2023-08-17T05:37:29;7;5;
71858;PMS5003;59713;50.866;4.324;2023-08-17T05:38:29;7;5;
71858;PMS5003;59713;50.866;4.324;2023-08-17T05:39:29;7;5;
71858;PMS5003;59713;50.866;4.324;2023-08-17T05:39:29;7;5;
71858;PMS5003;59713;50.866;4.324;2023-08-17T05:40:29;6;6;
71858;PMS5003;59713;50.866;4.324;2023-08-17T05:41:29;6;6;
71858;PMS5003;59713;50.866;4.324;2023-08-17T05:42:29;6;6;
71858;PMS5003;59713;50.866;4.324;2023-08-17T05:43:29;7;6;
71858;PMS5003;59713;50.866;4.324;2023-08-17T05:44:29;7;6;
71858;PMS5003;59713;50.866;4.324;2023-08-17T05:45:29;7;6;
71858;PMS5003;59713;50.866;4.324;2023-08-17T05:46:29;5;5;
71858;PMS5003;59713;50.866;4.324;2023-08-17T05:47:29;5;5;
71858;PMS5003;59713;50.866;4.324;2023-08-17T05:48:29;5;5;
71858;PMS5003;59713;50.866;4.324;2023-08-17T05:48:29;5;5;
71858;PMS5003;59713;50.866;4.324;2023-08-17T05:49:29;8;7;
71858;PMS5003;59713;50.866;4.324;2023-08-17T05:50:29;8;7;
71858;PMS5003;59713;50.866;4.324;2023-08-17T05:51:29;8;7;
71858;PMS5003;59713;50.866;4.324;2023-08-17T05:52:29;6;3;
71858;PMS5003;59713;50.866;4.324;2023-08-17T05:53:29;6;3;
71858;PMS5003;59713;50.866;4.324;2023-08-17T05:54:29;6;3;
71858;PMS5003;59713;50.866;4.324;2023-08-17T05:55:29;7;6;
71858;PMS5003;59713;50.866;4.324;2023-08-17T05:56:29;7;6;
71858;PMS5003;59713;50.866;4.324;2023-08-17T05:57:29;7;6;
71858;PMS5003;59713;50.866;4.324;2023-08-17T05:57:29;7;6;
71858;PMS5003;59713;50.866;4.324;2023-08-17T05:58:29;4;4;
71858;PMS5003;59713;50.866;4.324;2023-08-17T05:59:29;4;4;
71858;PMS5003;59713;50.866;4.324;2023-08-17T06:00:29;4;4;
71858;PMS5003;59713;50.866;4.324;2023-08-17T06:01:29;9;7;
71858;PMS5003;59713;50.866;4.324;2023-08-17T06:02:29;9;7;
71858;PMS5003;59713;50.866;4.324;2023-08-17T06:03:29;9;7;
71858;PMS5003;59713;50.866;4.324;2023-08-17T06:04:29;8;6;
71858;PMS5003;59713;50.866;4.324;2023-08-17T06:05:29;8;6;
71858;PMS5003;59713;50.866;4.324;2023-08-17T06:06:29;8;6;
71858;PMS5003;59713;50.866;4.324;2023-08-17T06:06:29;8;6;
71858;PMS5003;59713;50.866;4.324;2023-08-17T06:07:29;4;4;
71858;PMS5003;59713;50.866;4.324;2023-08-17T06:08:29;4;4;
71858;PMS5003;59713;50.866;4.324;2023-08-17T06:09:29;4;4;
71858;PMS5003;59713;50.866;4.324;2023-08-17T06:10:29;5;5;